Time;durP1;ratioP1;P1;durP2;ratioP2;P2;SDS_P1;SDS_P2;PMS_P1;PMS_P2;Temp;Humidity;BMP_temperature;BMP_pressure;BME280_temperature;BME280_humidity;BME280_pressure;Samples;Min_cycle;Max_cycle;Signal;HPM_P1;HPM_P2
2022/03/17 00:00:37;;;;;;;35.57;20.23;;;;;;;;;;5035725;28;20017;-68
2022/03/17 00:03:02;;;;;;;36.07;20.93;;;;;;;;;;5037945;28;20033;-68
2022/03/17 00:05:28;;;;;;;31.73;17.43;;;;;;;;;;5038018;28;20334;-68
2022/03/17 00:07:58;;;;;;;31.43;17.10;;;;;;;;;;5025812;28;20050;-68
2022/03/17 00:10:23;;;;;;;34.67;20.87;;;;;;;;;;5035104;28;20435;-68
2022/03/17 00:12:48;;;;;;;34.00;20.83;;;;;;;;;;5024276;28;20041;-68
2022/03/17 00:15:14;;;;;;;39.23;20.80;;;;;;;;;;5033475;28;20060;-68
2022/03/17 00:17:41;;;;;;;30.50;17.23;;;;;;;;;;5037865;28;20037;-68
2022/03/17 00:20:07;;;;;;;36.30;20.83;;;;;;;;;;5039222;28;20186;-68
2022/03/17 00:22:32;;;;;;;34.40;19.40;;;;;;;;;;5040050;28;20398;-68
2022/03/17 00:24:58;;;;;;;36.13;17.07;;;;;;;;;;5031752;28;20100;-66
2022/03/17 00:27:23;;;;;;;39.07;21.10;;;;;;;;;;5028998;28;20025;-66
2022/03/17 00:29:50;;;;;;;38.73;21.53;;;;;;;;;;5035652;28;20043;-66
2022/03/17 00:32:16;;;;;;;32.33;18.80;;;;;;;;;;5040800;28;20099;-66
2022/03/17 00:37:25;;;;;;;28.90;15.73;;;;;;;;;;5040706;28;20548;-67
2022/03/17 00:39:51;;;;;;;30.60;17.13;;;;;;;;;;5040079;28;20029;-68
2022/03/17 00:42:17;;;;;;;31.70;16.57;;;;;;;;;;5041095;28;20067;-66
2022/03/17 00:44:42;;;;;;;24.53;11.80;;;;;;;;;;5039846;28;20024;-68
2022/03/17 00:47:08;;;;;;;32.73;16.47;;;;;;;;;;5041925;28;20021;-68
2022/03/17 00:49:33;;;;;;;24.30;13.17;;;;;;;;;;5041171;28;20040;-68
2022/03/17 00:51:59;;;;;;;26.80;14.30;;;;;;;;;;5041606;28;20036;-66
2022/03/17 00:54:25;;;;;;;31.30;18.27;;;;;;;;;;5027943;28;20266;-66
2022/03/17 00:56:50;;;;;;;32.17;18.47;;;;;;;;;;5041424;28;20140;-66
2022/03/17 00:59:15;;;;;;;30.13;16.03;;;;;;;;;;5040739;28;20033;-66
2022/03/17 01:01:41;;;;;;;33.03;18.87;;;;;;;;;;5046492;28;20036;-66
2022/03/17 01:04:06;;;;;;;31.97;18.43;;;;;;;;;;5041283;28;20064;-66
2022/03/17 01:06:32;;;;;;;28.10;16.23;;;;;;;;;;5039401;28;20241;-66
2022/03/17 01:08:57;;;;;;;27.10;15.10;;;;;;;;;;5039714;28;20106;-68
2022/03/17 01:11:22;;;;;;;23.03;13.20;;;;;;;;;;5041361;28;20020;-66
2022/03/17 01:13:47;;;;;;;31.93;18.40;;;;;;;;;;5041168;28;20171;-66
2022/03/17 01:16:13;;;;;;;32.23;17.17;;;;;;;;;;5040738;28;20047;-66
2022/03/17 01:18:38;;;;;;;23.13;12.13;;;;;;;;;;5040757;28;20025;-66
2022/03/17 01:21:04;;;;;;;25.53;13.90;;;;;;;;;;5040464;28;20118;-66
2022/03/17 01:23:29;;;;;;;26.93;13.50;;;;;;;;;;5037886;28;20063;-66
2022/03/17 01:25:54;;;;;;;26.33;12.63;;;;;;;;;;5029365;28;20738;-66
2022/03/17 01:28:19;;;;;;;29.73;17.53;;;;;;;;;;5040257;28;20287;-66
2022/03/17 01:30:45;;;;;;;31.43;16.53;;;;;;;;;;5040436;28;20567;-66
2022/03/17 01:33:10;;;;;;;32.07;18.70;;;;;;;;;;5040220;28;20044;-66
2022/03/17 01:35:35;;;;;;;26.57;14.17;;;;;;;;;;5036245;28;20101;-66
2022/03/17 01:38:00;;;;;;;29.73;17.70;;;;;;;;;;5034425;28;20033;-66
2022/03/17 01:40:26;;;;;;;28.10;14.80;;;;;;;;;;5039964;28;20056;-66
2022/03/17 01:42:51;;;;;;;30.30;15.23;;;;;;;;;;5038411;28;20017;-66
2022/03/17 01:45:16;;;;;;;30.80;17.53;;;;;;;;;;5040696;28;20013;-66
2022/03/17 01:47:43;;;;;;;26.57;14.57;;;;;;;;;;5038964;28;20025;-66
2022/03/17 01:50:09;;;;;;;32.00;19.40;;;;;;;;;;5037773;28;20110;-66
2022/03/17 01:52:35;;;;;;;30.87;14.47;;;;;;;;;;5039111;28;20021;-66
2022/03/17 01:55:01;;;;;;;32.13;17.80;;;;;;;;;;5042364;28;20184;-66
2022/03/17 01:57:26;;;;;;;31.20;15.47;;;;;;;;;;5047673;28;20066;-66
2022/03/17 01:59:52;;;;;;;26.83;14.10;;;;;;;;;;5039450;28;20320;-66
2022/03/17 02:02:18;;;;;;;29.23;14.93;;;;;;;;;;5052307;28;20814;-66
2022/03/17 02:04:43;;;;;;;33.53;18.83;;;;;;;;;;5072292;23;20465;-67
2022/03/17 02:07:10;;;;;;;36.70;20.27;;;;;;;;;;5084746;28;20041;-67
2022/03/17 02:09:35;;;;;;;26.20;14.50;;;;;;;;;;5070794;28;20180;-66
2022/03/17 02:14:46;;;;;;;29.00;16.00;;;;;;;;;;5070703;28;20035;-67
2022/03/17 02:17:12;;;;;;;30.33;17.83;;;;;;;;;;5085019;28;20099;-67
2022/03/17 02:19:37;;;;;;;29.33;16.10;;;;;;;;;;5077031;28;20108;-66
2022/03/17 02:22:03;;;;;;;31.93;17.23;;;;;;;;;;5071668;28;20514;-67
2022/03/17 02:27:12;;;;;;;27.07;14.77;;;;;;;;;;5078580;28;20910;-67
2022/03/17 02:29:38;;;;;;;35.87;19.30;;;;;;;;;;5072361;28;20048;-67
2022/03/17 02:32:03;;;;;;;32.27;16.53;;;;;;;;;;5084609;28;20016;-67
2022/03/17 02:34:28;;;;;;;32.97;16.60;;;;;;;;;;5082798;28;20522;-68
2022/03/17 02:36:54;;;;;;;36.93;20.80;;;;;;;;;;5082402;28;20630;-67
2022/03/17 02:39:21;;;;;;;34.53;20.27;;;;;;;;;;5078186;28;20292;-67
2022/03/17 02:41:46;;;;;;;34.37;19.63;;;;;;;;;;5074038;28;20028;-67
2022/03/17 02:44:12;;;;;;;35.87;20.00;;;;;;;;;;5081534;28;20027;-67
2022/03/17 02:46:37;;;;;;;26.53;14.17;;;;;;;;;;5069658;28;20024;-67
2022/03/17 02:49:03;;;;;;;35.20;17.57;;;;;;;;;;5091369;28;20552;-67
2022/03/17 02:51:28;;;;;;;28.63;16.57;;;;;;;;;;5084143;28;20073;-67
2022/03/17 02:53:53;;;;;;;33.63;18.23;;;;;;;;;;5075867;28;20063;-67
2022/03/17 02:56:18;;;;;;;34.83;20.67;;;;;;;;;;5067966;28;20099;-67
2022/03/17 02:58:43;;;;;;;30.73;17.93;;;;;;;;;;5083727;28;20028;-67
2022/03/17 03:01:09;;;;;;;25.57;12.90;;;;;;;;;;5087003;28;20023;-67
2022/03/17 03:03:34;;;;;;;34.73;19.90;;;;;;;;;;5088503;28;20054;-67
2022/03/17 03:05:59;;;;;;;32.33;18.77;;;;;;;;;;5104653;28;20515;-67
2022/03/17 03:08:24;;;;;;;26.97;13.47;;;;;;;;;;5103641;28;20070;-67
2022/03/17 03:10:50;;;;;;;29.50;16.30;;;;;;;;;;5104229;28;20069;-67
2022/03/17 03:13:15;;;;;;;29.43;15.20;;;;;;;;;;5109150;28;20031;-67
2022/03/17 03:15:40;;;;;;;28.57;15.50;;;;;;;;;;5104243;28;20019;-67
2022/03/17 03:18:06;;;;;;;35.47;21.23;;;;;;;;;;5103779;28;20605;-67
2022/03/17 03:20:31;;;;;;;24.57;11.40;;;;;;;;;;5103794;28;20051;-67
2022/03/17 03:22:57;;;;;;;35.10;20.57;;;;;;;;;;5119816;28;20513;-67
2022/03/17 03:25:22;;;;;;;37.13;20.47;;;;;;;;;;5110176;28;20030;-67
2022/03/17 03:27:48;;;;;;;36.47;19.40;;;;;;;;;;5103532;28;20030;-68
2022/03/17 03:30:13;;;;;;;33.73;18.33;;;;;;;;;;5088480;28;20024;-68
2022/03/17 03:32:44;;;;;;;31.13;17.90;;;;;;;;;;5117830;28;20019;-68
2022/03/17 03:37:54;;;;;;;34.37;20.23;;;;;;;;;;5111051;28;20096;-68
2022/03/17 03:40:19;;;;;;;35.67;21.40;;;;;;;;;;5095425;28;20024;-68
2022/03/17 03:42:44;;;;;;;34.03;20.43;;;;;;;;;;5101875;28;20080;-68
2022/03/17 03:45:10;;;;;;;32.63;19.17;;;;;;;;;;5095174;28;20024;-68
2022/03/17 03:47:35;;;;;;;31.60;20.33;;;;;;;;;;5098208;28;20031;-68
2022/03/17 03:50:01;;;;;;;38.03;19.70;;;;;;;;;;5088262;28;20125;-68
2022/03/17 03:52:26;;;;;;;36.47;19.77;;;;;;;;;;5100118;28;20032;-68
2022/03/17 03:54:51;;;;;;;28.63;16.87;;;;;;;;;;5093867;28;20032;-68
2022/03/17 03:57:17;;;;;;;37.27;21.67;;;;;;;;;;5107445;27;20055;-68
2022/03/17 03:59:42;;;;;;;32.60;18.27;;;;;;;;;;5103655;28;20032;-68
2022/03/17 04:02:09;;;;;;;35.90;20.17;;;;;;;;;;5104887;28;20579;-68
2022/03/17 04:04:35;;;;;;;34.43;20.53;;;;;;;;;;5104213;28;20043;-68
2022/03/17 04:07:01;;;;;;;35.07;20.93;;;;;;;;;;5104700;28;20015;-68
2022/03/17 04:09:30;;;;;;;35.37;19.80;;;;;;;;;;5098541;28;20099;-68
2022/03/17 04:11:56;;;;;;;33.83;18.43;;;;;;;;;;5104234;28;20020;-67
2022/03/17 04:14:22;;;;;;;38.77;20.90;;;;;;;;;;5099083;28;20132;-68
2022/03/17 04:16:47;;;;;;;34.20;20.60;;;;;;;;;;5099150;28;20024;-68
2022/03/17 04:19:12;;;;;;;36.67;18.40;;;;;;;;;;5100005;28;20027;-68
2022/03/17 04:21:38;;;;;;;38.03;21.50;;;;;;;;;;5097219;28;20023;-68
2022/03/17 04:24:03;;;;;;;36.43;21.50;;;;;;;;;;5087353;28;20146;-68
2022/03/17 04:26:29;;;;;;;39.17;21.77;;;;;;;;;;5105029;28;20099;-68
2022/03/17 04:28:55;;;;;;;31.77;18.30;;;;;;;;;;5102353;28;20119;-68
2022/03/17 04:31:20;;;;;;;34.37;19.50;;;;;;;;;;5093753;28;20445;-68
2022/03/17 04:33:46;;;;;;;37.70;20.07;;;;;;;;;;5103745;28;20019;-68
2022/03/17 04:36:12;;;;;;;41.27;22.93;;;;;;;;;;5095901;28;20248;-67
2022/03/17 04:38:38;;;;;;;41.27;22.67;;;;;;;;;;5098271;28;20042;-68
2022/03/17 04:41:04;;;;;;;36.63;21.57;;;;;;;;;;5085456;28;20024;-67
2022/03/17 04:43:29;;;;;;;37.97;22.77;;;;;;;;;;5094486;28;20032;-68
2022/03/17 04:45:54;;;;;;;36.43;22.77;;;;;;;;;;5092075;28;20012;-67
2022/03/17 04:48:19;;;;;;;42.17;23.03;;;;;;;;;;5103645;28;20034;-68
2022/03/17 04:50:45;;;;;;;31.53;18.13;;;;;;;;;;5101146;28;20035;-68
2022/03/17 04:53:30;;;;;;;41.07;22.53;;;;;;;;;;5102660;28;20677;-68
2022/03/17 04:55:58;;;;;;;39.70;23.23;;;;;;;;;;5085333;28;20057;-68
2022/03/17 04:58:23;;;;;;;37.20;22.03;;;;;;;;;;5101148;28;20026;-68
2022/03/17 05:00:48;;;;;;;41.63;22.07;;;;;;;;;;5104154;28;20391;-67
2022/03/17 05:03:14;;;;;;;38.10;20.10;;;;;;;;;;5100939;28;20711;-68
2022/03/17 05:05:40;;;;;;;37.90;23.53;;;;;;;;;;5103954;28;20078;-67
2022/03/17 05:08:06;;;;;;;37.37;22.90;;;;;;;;;;5102662;28;20072;-68
2022/03/17 05:10:35;;;;;;;38.87;23.20;;;;;;;;;;5104004;28;20107;-68
2022/03/17 05:13:02;;;;;;;33.90;17.27;;;;;;;;;;5103733;28;20034;-67
2022/03/17 05:15:27;;;;;;;40.93;23.07;;;;;;;;;;5103811;28;20031;-68
2022/03/17 05:17:52;;;;;;;37.43;19.43;;;;;;;;;;5103695;28;20024;-68
2022/03/17 05:20:17;;;;;;;37.67;23.10;;;;;;;;;;5097322;28;20034;-68
2022/03/17 05:22:43;;;;;;;38.73;21.63;;;;;;;;;;5098415;28;20063;-68
2022/03/17 05:25:09;;;;;;;39.37;22.57;;;;;;;;;;5092298;28;20027;-68
2022/03/17 05:27:38;;;;;;;37.53;20.87;;;;;;;;;;5091601;28;20023;-68
2022/03/17 05:30:03;;;;;;;39.37;22.73;;;;;;;;;;5090619;28;20042;-67
2022/03/17 05:32:29;;;;;;;39.93;22.03;;;;;;;;;;5091202;28;20040;-67
2022/03/17 05:34:54;;;;;;;35.60;20.97;;;;;;;;;;5101903;28;20039;-67
2022/03/17 05:37:19;;;;;;;40.27;23.00;;;;;;;;;;5090092;28;20042;-68
2022/03/17 05:39:44;;;;;;;34.57;19.80;;;;;;;;;;5096456;28;20727;-67
2022/03/17 05:42:10;;;;;;;38.73;20.40;;;;;;;;;;5102806;28;20031;-67
2022/03/17 05:44:35;;;;;;;40.30;22.87;;;;;;;;;;5097998;28;20019;-67
2022/03/17 05:47:01;;;;;;;40.50;22.50;;;;;;;;;;5101881;28;20061;-68
2022/03/17 05:49:26;;;;;;;38.13;22.27;;;;;;;;;;5095674;28;20032;-68
2022/03/17 05:51:51;;;;;;;38.80;22.53;;;;;;;;;;5102422;28;20027;-68
2022/03/17 05:54:17;;;;;;;40.20;23.87;;;;;;;;;;5102687;28;20032;-68
2022/03/17 05:56:42;;;;;;;40.70;24.00;;;;;;;;;;5102170;28;20027;-68
2022/03/17 05:59:07;;;;;;;38.87;22.90;;;;;;;;;;5098222;28;20030;-68
2022/03/17 06:01:32;;;;;;;38.40;23.53;;;;;;;;;;5102318;28;20042;-68
2022/03/17 06:03:57;;;;;;;38.07;22.57;;;;;;;;;;5097427;28;20140;-68
2022/03/17 06:06:23;;;;;;;41.80;22.73;;;;;;;;;;5098551;28;20054;-68
2022/03/17 06:08:48;;;;;;;40.07;23.17;;;;;;;;;;5102333;28;20068;-68
2022/03/17 06:11:13;;;;;;;38.60;23.67;;;;;;;;;;5102451;28;20019;-68
2022/03/17 06:13:38;;;;;;;42.77;25.13;;;;;;;;;;5101720;28;20096;-68
2022/03/17 06:16:05;;;;;;;42.13;24.63;;;;;;;;;;5090014;28;20020;-69
2022/03/17 06:18:31;;;;;;;42.53;25.20;;;;;;;;;;5101909;28;20100;-68
2022/03/17 06:20:56;;;;;;;42.03;23.53;;;;;;;;;;5101017;28;20110;-68
2022/03/17 06:23:21;;;;;;;40.50;23.67;;;;;;;;;;5102745;28;20026;-68
2022/03/17 06:25:46;;;;;;;46.60;24.97;;;;;;;;;;5100871;28;20650;-69
2022/03/17 06:28:14;;;;;;;40.20;23.43;;;;;;;;;;5091842;28;20700;-68
2022/03/17 06:30:39;;;;;;;42.93;25.13;;;;;;;;;;5099990;28;20714;-68
2022/03/17 06:33:05;;;;;;;45.53;26.07;;;;;;;;;;5101372;28;20115;-68
2022/03/17 06:35:30;;;;;;;48.23;26.97;;;;;;;;;;5099012;28;20015;-68
2022/03/17 06:37:57;;;;;;;51.60;27.93;;;;;;;;;;5101934;28;20028;-68
2022/03/17 06:40:23;;;;;;;51.57;28.50;;;;;;;;;;5095056;28;20480;-68
2022/03/17 06:42:49;;;;;;;48.63;27.07;;;;;;;;;;5101775;28;20019;-68
2022/03/17 06:45:15;;;;;;;49.50;27.17;;;;;;;;;;5097929;28;20007;-68
2022/03/17 06:47:41;;;;;;;55.03;29.17;;;;;;;;;;5100968;28;20498;-68
2022/03/17 06:50:07;;;;;;;51.47;28.53;;;;;;;;;;5098245;28;20175;-68
2022/03/17 06:52:32;;;;;;;46.40;27.83;;;;;;;;;;5099622;28;20062;-68
2022/03/17 06:54:57;;;;;;;49.63;28.50;;;;;;;;;;5101400;28;20023;-68
2022/03/17 06:57:26;;;;;;;54.70;30.90;;;;;;;;;;5102455;28;20038;-68
2022/03/17 06:59:52;;;;;;;52.20;29.13;;;;;;;;;;5101559;28;20016;-68
2022/03/17 07:02:17;;;;;;;56.53;30.20;;;;;;;;;;5097750;28;20695;-68
2022/03/17 07:04:43;;;;;;;52.87;29.50;;;;;;;;;;5097190;28;20051;-68
2022/03/17 07:07:09;;;;;;;56.37;30.80;;;;;;;;;;5098019;28;20019;-68
2022/03/17 07:09:34;;;;;;;56.77;31.83;;;;;;;;;;5093409;28;20032;-68
2022/03/17 07:12:00;;;;;;;58.07;31.40;;;;;;;;;;5101405;28;20024;-68
2022/03/17 07:14:25;;;;;;;57.47;29.13;;;;;;;;;;5093268;28;20031;-68
2022/03/17 07:16:50;;;;;;;53.67;30.67;;;;;;;;;;5081844;28;20035;-68
2022/03/17 07:19:18;;;;;;;55.33;29.67;;;;;;;;;;5081491;28;20032;-68
2022/03/17 07:21:43;;;;;;;57.03;30.83;;;;;;;;;;5085684;28;20099;-68
2022/03/17 07:24:09;;;;;;;53.10;28.93;;;;;;;;;;5101550;28;20103;-68
2022/03/17 07:26:38;;;;;;;56.73;30.97;;;;;;;;;;5101919;28;20020;-68
2022/03/17 07:29:03;;;;;;;59.93;31.77;;;;;;;;;;5104673;28;20487;-68
2022/03/17 07:31:29;;;;;;;54.83;28.30;;;;;;;;;;5105797;28;20038;-68
2022/03/17 07:33:54;;;;;;;58.73;32.13;;;;;;;;;;5105417;28;20094;-68
2022/03/17 07:36:20;;;;;;;58.70;31.13;;;;;;;;;;5105535;28;20031;-68
2022/03/17 07:38:45;;;;;;;58.13;31.33;;;;;;;;;;5104382;28;20073;-68
2022/03/17 07:41:10;;;;;;;63.30;33.67;;;;;;;;;;5101881;28;20650;-68
2022/03/17 07:43:35;;;;;;;64.70;34.67;;;;;;;;;;5105862;28;20019;-68
2022/03/17 07:46:01;;;;;;;69.13;35.87;;;;;;;;;;5085697;28;20028;-68
2022/03/17 07:48:26;;;;;;;70.43;35.70;;;;;;;;;;5085277;28;20020;-69
2022/03/17 07:50:51;;;;;;;75.17;35.67;;;;;;;;;;5085959;28;20032;-68
2022/03/17 07:53:17;;;;;;;71.73;36.17;;;;;;;;;;5105525;28;20029;-69
2022/03/17 07:55:43;;;;;;;75.70;37.47;;;;;;;;;;5087859;28;20032;-69
2022/03/17 07:58:10;;;;;;;68.23;32.27;;;;;;;;;;5084919;28;20212;-69
2022/03/17 08:00:36;;;;;;;71.80;32.03;;;;;;;;;;5084579;28;20059;-69
2022/03/17 08:03:02;;;;;;;76.40;34.33;;;;;;;;;;5084884;28;20083;-69
2022/03/17 08:05:28;;;;;;;79.17;34.67;;;;;;;;;;5085744;28;20524;-69
2022/03/17 08:07:53;;;;;;;64.37;29.80;;;;;;;;;;5105211;28;20058;-69
2022/03/17 08:10:18;;;;;;;35.47;17.40;;;;;;;;;;5091009;28;20062;-69
2022/03/17 08:12:43;;;;;;;53.20;24.70;;;;;;;;;;5103558;28;20122;-69
2022/03/17 08:15:09;;;;;;;32.97;16.47;;;;;;;;;;5092425;28;20028;-69
2022/03/17 08:17:35;;;;;;;25.67;13.13;;;;;;;;;;5084907;28;20020;-69
2022/03/17 08:20:00;;;;;;;27.47;14.80;;;;;;;;;;5084560;28;20434;-69
2022/03/17 08:22:26;;;;;;;23.80;13.53;;;;;;;;;;5084857;28;20135;-69
2022/03/17 08:24:51;;;;;;;21.37;11.60;;;;;;;;;;5084725;28;20101;-69
2022/03/17 08:27:16;;;;;;;18.97;10.07;;;;;;;;;;5100989;28;20027;-69
2022/03/17 08:29:42;;;;;;;18.57;9.60;;;;;;;;;;5095958;28;20076;-69
2022/03/17 08:32:08;;;;;;;20.60;12.33;;;;;;;;;;5084347;28;20051;-69
2022/03/17 08:34:34;;;;;;;16.97;9.13;;;;;;;;;;5084329;28;20051;-69
2022/03/17 08:36:59;;;;;;;18.57;10.63;;;;;;;;;;5084532;28;20028;-69
2022/03/17 08:39:25;;;;;;;21.40;11.73;;;;;;;;;;5083099;28;20066;-69
2022/03/17 08:41:51;;;;;;;13.87;7.23;;;;;;;;;;5099731;28;20119;-69
2022/03/17 08:44:17;;;;;;;17.53;9.43;;;;;;;;;;5099202;28;20033;-69
2022/03/17 08:49:26;;;;;;;19.67;10.13;;;;;;;;;;5095156;28;20652;-69
2022/03/17 08:51:53;;;;;;;20.03;11.43;;;;;;;;;;5104126;28;20035;-69
2022/03/17 08:54:22;;;;;;;19.93;9.90;;;;;;;;;;5104559;28;20465;-70
2022/03/17 08:56:51;;;;;;;19.27;10.30;;;;;;;;;;5104102;28;20031;-69
2022/03/17 08:59:17;;;;;;;20.50;9.73;;;;;;;;;;5090928;28;20039;-69
2022/03/17 09:01:42;;;;;;;16.33;9.90;;;;;;;;;;5102628;28;20023;-69
2022/03/17 09:04:08;;;;;;;16.73;8.13;;;;;;;;;;5099263;28;20496;-69
2022/03/17 09:06:35;;;;;;;21.83;10.63;;;;;;;;;;5083779;28;20049;-69
2022/03/17 09:09:00;;;;;;;20.53;10.57;;;;;;;;;;5083591;28;20051;-69
2022/03/17 09:11:26;;;;;;;13.97;8.93;;;;;;;;;;5083710;28;20490;-69
2022/03/17 09:13:52;;;;;;;21.13;10.70;;;;;;;;;;5083428;28;20279;-69
2022/03/17 09:16:17;;;;;;;14.47;7.07;;;;;;;;;;5084187;28;20036;-69
2022/03/17 09:18:42;;;;;;;18.60;9.33;;;;;;;;;;5101462;28;20020;-69
2022/03/17 09:21:08;;;;;;;14.57;7.60;;;;;;;;;;5083419;28;20103;-69
2022/03/17 09:23:33;;;;;;;13.10;6.40;;;;;;;;;;5083487;28;20012;-69
2022/03/17 09:25:59;;;;;;;12.87;7.03;;;;;;;;;;5083227;28;20008;-69
2022/03/17 09:28:26;;;;;;;10.10;5.30;;;;;;;;;;5085917;28;20038;-69
2022/03/17 09:30:51;;;;;;;15.40;6.77;;;;;;;;;;5102287;28;20038;-69
2022/03/17 09:33:17;;;;;;;16.10;7.30;;;;;;;;;;5103168;28;20012;-69
2022/03/17 09:35:42;;;;;;;14.73;6.03;;;;;;;;;;5097452;28;20030;-69
2022/03/17 09:38:07;;;;;;;15.80;6.83;;;;;;;;;;5103798;28;20032;-69
2022/03/17 09:40:37;;;;;;;8.53;4.63;;;;;;;;;;5087210;28;20020;-69
2022/03/17 09:43:28;;;;;;;13.77;6.63;;;;;;;;;;5083543;28;20028;-69
2022/03/17 09:45:54;;;;;;;17.75;6.93;;;;;;;;;;5101204;28;20615;-69
2022/03/17 09:48:21;;;;;;;15.27;6.67;;;;;;;;;;5102983;28;20053;-69
2022/03/17 09:50:47;;;;;;;12.10;5.60;;;;;;;;;;5102188;28;20050;-69
2022/03/17 09:53:12;;;;;;;11.27;6.27;;;;;;;;;;5101797;28;20051;-69
2022/03/17 09:55:41;;;;;;;14.30;6.73;;;;;;;;;;5086458;28;20027;-69
2022/03/17 09:58:06;;;;;;;10.53;5.23;;;;;;;;;;5082650;28;20457;-69
2022/03/17 10:00:50;;;;;;;13.07;5.77;;;;;;;;;;5082486;28;20032;-69
2022/03/17 10:03:17;;;;;;;11.77;5.93;;;;;;;;;;5098076;28;20051;-69
2022/03/17 10:05:46;;;;;;;15.07;6.10;;;;;;;;;;5083963;28;20675;-69
2022/03/17 10:08:12;;;;;;;14.77;6.93;;;;;;;;;;5082467;28;20023;-69
2022/03/17 10:10:38;;;;;;;14.13;4.97;;;;;;;;;;5082183;28;20107;-69
2022/03/17 10:13:05;;;;;;;9.23;4.43;;;;;;;;;;5082458;28;20644;-69
2022/03/17 10:15:30;;;;;;;10.20;4.03;;;;;;;;;;5097623;28;20040;-69
2022/03/17 10:17:56;;;;;;;5.77;2.70;;;;;;;;;;5102202;28;20068;-69
2022/03/17 10:20:22;;;;;;;9.33;3.60;;;;;;;;;;5087945;28;20107;-69
2022/03/17 10:22:52;;;;;;;8.97;3.13;;;;;;;;;;5082558;28;20077;-69
2022/03/17 10:25:38;;;;;;;8.87;2.23;;;;;;;;;;5083362;28;20082;-69
2022/03/17 10:28:03;;;;;;;9.17;2.20;;;;;;;;;;5083301;28;20392;-69
2022/03/17 10:30:33;;;;;;;7.10;1.90;;;;;;;;;;5084552;28;20057;-69
2022/03/17 10:33:00;;;;;;;8.77;1.97;;;;;;;;;;5102301;28;20020;-69
2022/03/17 10:35:27;;;;;;;7.60;1.67;;;;;;;;;;5104009;28;20035;-69
2022/03/17 10:37:52;;;;;;;6.90;1.93;;;;;;;;;;5104423;28;20055;-69
2022/03/17 10:40:17;;;;;;;5.77;1.70;;;;;;;;;;5090699;28;20024;-69
2022/03/17 10:42:42;;;;;;;7.83;1.60;;;;;;;;;;5085180;28;20020;-69
2022/03/17 10:45:08;;;;;;;11.40;1.77;;;;;;;;;;5103337;28;20092;-69
2022/03/17 10:47:40;;;;;;;4.23;1.07;;;;;;;;;;5104664;28;20034;-69
2022/03/17 10:50:14;;;;;;;10.97;2.53;;;;;;;;;;5095159;28;20467;-69
2022/03/17 10:52:48;;;;;;;9.63;1.50;;;;;;;;;;5093865;28;20032;-69
2022/03/17 10:55:14;;;;;;;5.67;1.40;;;;;;;;;;5091655;28;20027;-69
2022/03/17 10:57:40;;;;;;;8.63;1.60;;;;;;;;;;5065750;28;20020;-69
2022/03/17 11:00:09;;;;;;;8.07;1.70;;;;;;;;;;5092592;28;20154;-68
2022/03/17 11:02:37;;;;;;;11.50;2.07;;;;;;;;;;5103465;28;20019;-69
2022/03/17 11:05:06;;;;;;;11.07;1.77;;;;;;;;;;5092418;28;20123;-69
2022/03/17 11:07:31;;;;;;;9.40;1.43;;;;;;;;;;5094990;28;20486;-69
2022/03/17 11:09:57;;;;;;;10.03;1.70;;;;;;;;;;5102531;28;20019;-69
2022/03/17 11:12:25;;;;;;;7.20;1.50;;;;;;;;;;5104017;28;20080;-69
2022/03/17 11:14:50;;;;;;;8.90;1.80;;;;;;;;;;5094669;28;20035;-69
2022/03/17 11:17:24;;;;;;;13.97;2.00;;;;;;;;;;5095742;28;20467;-69
2022/03/17 11:19:50;;;;;;;15.17;1.90;;;;;;;;;;5103221;28;20023;-69
2022/03/17 11:22:20;;;;;;;11.43;1.70;;;;;;;;;;5104558;28;20485;-69
2022/03/17 11:24:46;;;;;;;11.63;1.70;;;;;;;;;;5104135;28;20016;-69
2022/03/17 11:27:12;;;;;;;10.57;1.80;;;;;;;;;;5101237;28;20024;-69
2022/03/17 11:29:45;;;;;;;9.07;1.53;;;;;;;;;;5104226;28;20035;-69
2022/03/17 11:32:29;;;;;;;10.67;2.40;;;;;;;;;;5104907;28;20115;-69
2022/03/17 11:35:16;;;;;;;9.43;1.60;;;;;;;;;;5094432;28;20020;-68
2022/03/17 11:37:41;;;;;;;13.23;1.70;;;;;;;;;;5084633;28;20020;-68
2022/03/17 11:40:16;;;;;;;10.90;1.90;;;;;;;;;;5092305;28;20027;-68
2022/03/17 11:42:56;;;;;;;11.17;1.77;;;;;;;;;;5104719;28;20681;-68
2022/03/17 11:45:21;;;;;;;12.63;1.73;;;;;;;;;;5103579;28;20125;-69
2022/03/17 11:47:49;;;;;;;12.20;1.87;;;;;;;;;;5104354;28;20099;-69
2022/03/17 11:50:25;;;;;;;14.53;2.40;;;;;;;;;;5090740;28;20034;-69
2022/03/17 11:52:57;;;;;;;7.00;1.50;;;;;;;;;;5083995;28;20103;-69
2022/03/17 11:55:35;;;;;;;6.50;1.20;;;;;;;;;;5095852;28;20011;-68
2022/03/17 11:58:24;;;;;;;6.20;1.43;;;;;;;;;;5104262;28;20659;-69
2022/03/17 12:01:00;;;;;;;7.87;1.63;;;;;;;;;;5085975;28;20028;-67
2022/03/17 12:03:28;;;;;;;10.97;1.90;;;;;;;;;;5083831;28;20024;-67
2022/03/17 12:06:06;;;;;;;9.63;2.07;;;;;;;;;;5083799;28;20051;-67
2022/03/17 12:08:35;;;;;;;14.87;1.80;;;;;;;;;;5083189;28;20046;-67
2022/03/17 12:11:05;;;;;;;10.93;1.30;;;;;;;;;;5083687;28;20066;-67
2022/03/17 12:13:32;;;;;;;11.80;1.70;;;;;;;;;;5083414;28;20103;-67
2022/03/17 12:15:58;;;;;;;9.53;1.80;;;;;;;;;;5086363;28;20024;-67
2022/03/17 12:18:23;;;;;;;13.23;2.00;;;;;;;;;;5105474;28;20391;-67
2022/03/17 12:20:52;;;;;;;14.67;1.70;;;;;;;;;;5105255;28;20032;-67
2022/03/17 12:23:36;;;;;;;13.80;1.70;;;;;;;;;;5104400;28;20011;-67
2022/03/17 12:26:04;;;;;;;10.77;1.80;;;;;;;;;;5101896;28;20027;-67
2022/03/17 12:28:30;;;;;;;9.83;1.60;;;;;;;;;;5101375;28;20411;-67
2022/03/17 12:30:56;;;;;;;13.80;1.93;;;;;;;;;;5105673;28;20618;-67
2022/03/17 12:33:21;;;;;;;10.13;1.87;;;;;;;;;;5105343;28;20031;-67
2022/03/17 12:35:48;;;;;;;8.97;1.80;;;;;;;;;;5098430;28;20020;-67
2022/03/17 12:38:18;;;;;;;11.53;2.00;;;;;;;;;;5102985;28;20016;-67
2022/03/17 12:40:44;;;;;;;10.00;1.87;;;;;;;;;;5105095;28;20031;-67
2022/03/17 12:43:15;;;;;;;17.33;2.37;;;;;;;;;;5107199;28;20258;-68
2022/03/17 12:45:40;;;;;;;18.50;2.30;;;;;;;;;;5103113;28;20020;-68
2022/03/17 12:48:08;;;;;;;8.57;1.67;;;;;;;;;;5107060;28;20096;-68
2022/03/17 12:50:34;;;;;;;10.67;2.10;;;;;;;;;;5091382;28;20052;-69
2022/03/17 12:52:59;;;;;;;9.43;1.80;;;;;;;;;;5104333;28;20096;-69
2022/03/17 12:55:24;;;;;;;15.00;2.87;;;;;;;;;;5092046;28;20324;-69
2022/03/17 12:57:50;;;;;;;14.97;1.90;;;;;;;;;;5086537;28;20054;-69
2022/03/17 13:00:16;;;;;;;17.07;2.40;;;;;;;;;;5099526;28;20024;-69
2022/03/17 13:02:48;;;;;;;13.07;1.80;;;;;;;;;;5106725;28;20281;-69
2022/03/17 13:08:02;;;;;;;9.70;1.70;;;;;;;;;;5102717;28;20050;-69
2022/03/17 13:10:28;;;;;;;12.60;2.30;;;;;;;;;;5103940;28;20038;-69
2022/03/17 13:15:41;;;;;;;15.47;2.43;;;;;;;;;;5090962;28;20301;-69
2022/03/17 13:18:08;;;;;;;12.20;1.70;;;;;;;;;;5098878;28;20623;-69
2022/03/17 13:20:33;;;;;;;13.93;2.23;;;;;;;;;;5106891;28;20388;-69
2022/03/17 13:22:59;;;;;;;15.63;2.00;;;;;;;;;;5106928;28;20031;-69
2022/03/17 13:25:25;;;;;;;11.20;1.80;;;;;;;;;;5089551;28;20421;-69
2022/03/17 13:27:58;;;;;;;14.17;1.97;;;;;;;;;;5087196;28;20107;-69
2022/03/17 13:30:23;;;;;;;18.33;2.40;;;;;;;;;;5100752;28;20019;-69
2022/03/17 13:32:58;;;;;;;11.20;2.03;;;;;;;;;;5106750;28;20620;-69
2022/03/17 13:35:23;;;;;;;13.67;2.20;;;;;;;;;;5106248;28;20829;-69
2022/03/17 13:37:50;;;;;;;15.67;2.27;;;;;;;;;;5106807;28;20024;-69
2022/03/17 13:40:16;;;;;;;13.67;2.23;;;;;;;;;;5106193;28;20026;-69
2022/03/17 13:43:00;;;;;;;16.40;2.37;;;;;;;;;;5106757;28;20114;-69
2022/03/17 13:45:39;;;;;;;12.33;2.00;;;;;;;;;;5091034;28;20040;-69
2022/03/17 13:48:14;;;;;;;11.60;2.20;;;;;;;;;;5099116;28;20031;-69
2022/03/17 13:50:39;;;;;;;12.73;2.07;;;;;;;;;;5102873;28;20507;-69
2022/03/17 13:53:04;;;;;;;14.23;2.53;;;;;;;;;;5103162;28;20027;-69
2022/03/17 13:55:40;;;;;;;15.87;2.40;;;;;;;;;;5102471;28;20034;-69
2022/03/17 13:58:09;;;;;;;14.50;2.13;;;;;;;;;;5103108;28;20418;-69
2022/03/17 14:00:34;;;;;;;14.03;2.30;;;;;;;;;;5102722;28;20038;-69
2022/03/17 14:03:18;;;;;;;9.50;1.83;;;;;;;;;;5103012;28;20475;-69
2022/03/17 14:05:56;;;;;;;16.80;2.00;;;;;;;;;;5087795;28;20044;-69
2022/03/17 14:08:21;;;;;;;14.67;2.43;;;;;;;;;;5103151;28;20419;-69
2022/03/17 14:10:47;;;;;;;9.50;2.00;;;;;;;;;;5102399;28;20043;-69
2022/03/17 14:13:12;;;;;;;12.80;2.40;;;;;;;;;;5102825;28;20076;-69
2022/03/17 14:15:37;;;;;;;13.23;2.03;;;;;;;;;;5102388;28;20035;-69
2022/03/17 14:18:02;;;;;;;11.00;1.90;;;;;;;;;;5102686;28;20023;-69
2022/03/17 14:20:28;;;;;;;15.57;2.30;;;;;;;;;;5087303;28;20039;-69
2022/03/17 14:25:37;;;;;;;14.10;1.77;;;;;;;;;;5082131;28;20077;-69
2022/03/17 14:28:02;;;;;;;12.47;1.73;;;;;;;;;;5082514;28;20095;-69
2022/03/17 14:30:28;;;;;;;15.77;2.20;;;;;;;;;;5081927;28;20027;-69
2022/03/17 14:32:53;;;;;;;14.90;2.10;;;;;;;;;;5097315;28;20035;-69
2022/03/17 14:35:18;;;;;;;9.60;1.73;;;;;;;;;;5088325;28;20073;-69
2022/03/17 14:37:43;;;;;;;10.97;2.17;;;;;;;;;;5081398;28;20016;-69
2022/03/17 14:40:09;;;;;;;13.13;2.00;;;;;;;;;;5082928;28;20031;-69
2022/03/17 14:42:34;;;;;;;14.40;2.20;;;;;;;;;;5101568;28;20062;-69